Time;durP1;ratioP1;P1;durP2;ratioP2;P2;SDS_P1;SDS_P2;PMS_P1;PMS_P2;Temp;Humidity;BMP_temperature;BMP_pressure;BME280_temperature;BME280_humidity;BME280_pressure;Samples;Min_cycle;Max_cycle;Signal;HPM_P1;HPM_P2
2023/04/27 00:02:31;;;;;;;10.93;7.25;;;;;;;;;;6239426;28;20059;-74
2023/04/27 00:05:38;;;;;;;11.23;6.65;;;;;;;;;;6234907;28;20124;-77
2023/04/27 00:08:40;;;;;;;12.55;6.53;;;;;;;;;;6241896;28;20060;-73
2023/04/27 00:11:42;;;;;;;11.05;5.85;;;;;;;;;;6243814;28;20057;-72
2023/04/27 00:14:44;;;;;;;11.68;6.25;;;;;;;;;;6229531;28;20184;-75
2023/04/27 00:18:41;;;;;;;11.07;6.03;;;;;;;;;;6245125;28;20076;-75
2023/04/27 00:21:45;;;;;;;9.10;5.90;;;;;;;;;;6221738;28;20594;-74
2023/04/27 00:24:47;;;;;;;11.45;5.85;;;;;;;;;;6242919;28;20054;-74
2023/04/27 00:27:49;;;;;;;11.23;6.10;;;;;;;;;;6242325;28;20061;-74
2023/04/27 00:31:02;;;;;;;;;;;;;;;;;;;;;
2023/04/27 00:34:04;;;;;;;10.57;5.72;;;;;;;;;;6240563;28;20120;-74
2023/04/27 00:37:13;;;;;;;15.02;6.28;;;;;;;;;;6227473;28;20053;-75
2023/04/27 00:40:15;;;;;;;11.85;6.13;;;;;;;;;;6229091;28;20113;-75
2023/04/27 00:43:23;;;;;;;11.13;5.97;;;;;;;;;;6238823;28;20131;-75
2023/04/27 00:46:27;;;;;;;14.02;5.85;;;;;;;;;;6244122;28;20053;-74
2023/04/27 00:50:09;;;;;;;15.07;6.05;;;;;;;;;;6243464;28;20085;-73
2023/04/27 00:53:13;;;;;;;9.77;5.25;;;;;;;;;;6221924;28;20064;-74
2023/04/27 01:00:48;;;;;;;10.60;5.35;;;;;;;;;;6242213;28;20029;-75
2023/04/27 01:03:59;;;;;;;13.50;5.65;;;;;;;;;;6245108;28;20069;-76
2023/04/27 01:07:02;;;;;;;9.68;5.47;;;;;;;;;;6241717;28;20284;-74
2023/04/27 01:13:22;;;;;;;8.20;5.10;;;;;;;;;;6147284;28;20257;-75
2023/04/27 01:16:25;;;;;;;9.65;5.70;;;;;;;;;;6199292;28;20089;-75
2023/04/27 01:19:27;;;;;;;11.30;4.75;;;;;;;;;;6202708;28;20132;-74
2023/04/27 01:22:29;;;;;;;10.10;4.78;;;;;;;;;;6197368;28;20070;-74
2023/04/27 01:25:33;;;;;;;15.40;5.25;;;;;;;;;;6199624;28;20050;-74
2023/04/27 01:28:38;;;;;;;11.63;5.72;;;;;;;;;;6199466;28;20066;-74
2023/04/27 01:31:42;;;;;;;8.27;5.10;;;;;;;;;;6198548;28;20543;-75
2023/04/27 01:34:47;;;;;;;8.45;4.93;;;;;;;;;;6199308;28;20082;-74
2023/04/27 01:37:49;;;;;;;8.93;5.10;;;;;;;;;;6195851;28;20053;-75
2023/04/27 01:40:54;;;;;;;8.70;5.10;;;;;;;;;;6197976;28;20125;-75
2023/04/27 01:43:55;;;;;;;8.77;4.63;;;;;;;;;;6210634;28;20340;-76
2023/04/27 01:46:58;;;;;;;8.90;4.88;;;;;;;;;;6238695;28;20116;-74
2023/04/27 01:50:00;;;;;;;9.90;5.10;;;;;;;;;;6237579;28;20053;-74
2023/04/27 01:53:24;;;;;;;8.10;5.18;;;;;;;;;;6237250;28;20340;-75
2023/04/27 01:56:32;;;;;;;9.85;5.30;;;;;;;;;;6238994;28;20042;-74
2023/04/27 01:59:43;;;;;;;10.35;4.90;;;;;;;;;;6186901;28;20041;-73
2023/04/27 02:02:45;;;;;;;10.88;5.22;;;;;;;;;;6237806;28;20065;-73
2023/04/27 02:05:47;;;;;;;8.82;4.88;;;;;;;;;;6239088;28;20076;-76
2023/04/27 02:08:51;;;;;;;9.45;5.07;;;;;;;;;;6236983;28;20049;-74
2023/04/27 02:11:54;;;;;;;11.77;5.30;;;;;;;;;;6240048;28;20050;-74
2023/04/27 02:14:56;;;;;;;11.07;4.45;;;;;;;;;;6237914;28;20326;-73
2023/04/27 02:17:58;;;;;;;11.05;5.20;;;;;;;;;;6240109;28;20060;-77
2023/04/27 02:21:19;;;;;;;9.95;5.43;;;;;;;;;;6235319;28;20334;-73
2023/04/27 02:24:22;;;;;;;9.85;5.20;;;;;;;;;;6240406;28;20108;-77
2023/04/27 02:27:27;;;;;;;8.57;4.75;;;;;;;;;;6244654;28;20286;-74
2023/04/27 02:30:30;;;;;;;9.00;5.00;;;;;;;;;;6242968;28;20053;-73
2023/04/27 02:37:41;;;;;;;12.55;5.75;;;;;;;;;;6245225;28;20061;-73
2023/04/27 02:40:43;;;;;;;8.30;5.07;;;;;;;;;;6245041;28;20045;-74
2023/04/27 02:43:47;;;;;;;9.90;5.22;;;;;;;;;;6231080;28;20108;-74
2023/04/27 02:46:57;;;;;;;11.32;5.75;;;;;;;;;;6220538;28;20337;-74
2023/04/27 02:50:00;;;;;;;10.23;5.07;;;;;;;;;;6244064;28;20701;-73
2023/04/27 02:53:39;;;;;;;11.98;5.35;;;;;;;;;;6240004;28;20156;-74
2023/04/27 02:56:41;;;;;;;10.25;5.82;;;;;;;;;;6238244;28;20053;-74
2023/04/27 02:59:55;;;;;;;8.70;4.97;;;;;;;;;;6237736;28;20053;-74
2023/04/27 03:02:57;;;;;;;10.83;5.33;;;;;;;;;;6235044;28;20249;-73
2023/04/27 03:05:59;;;;;;;10.32;5.32;;;;;;;;;;6236767;28;20054;-74
2023/04/27 03:09:02;;;;;;;8.48;5.05;;;;;;;;;;6239391;28;20095;-73
2023/04/27 03:12:05;;;;;;;11.18;5.43;;;;;;;;;;6238919;28;20439;-74
2023/04/27 03:15:09;;;;;;;9.02;5.20;;;;;;;;;;6236000;28;20337;-74
2023/04/27 03:18:11;;;;;;;9.45;4.47;;;;;;;;;;6236881;28;20489;-74
2023/04/27 03:21:15;;;;;;;10.48;5.05;;;;;;;;;;6237693;28;20041;-74
2023/04/27 03:24:17;;;;;;;;;;;;;;;;;;6238344;28;20060;-74
2023/04/27 03:27:19;;;;;;;8.55;4.63;;;;;;;;;;6237188;28;20129;-73
2023/04/27 03:30:42;;;;;;;10.45;5.35;;;;;;;;;;6238029;28;20049;-74
2023/04/27 03:33:46;;;;;;;9.27;4.88;;;;;;;;;;6238826;28;20061;-73
2023/04/27 03:36:48;;;;;;;9.40;5.07;;;;;;;;;;6238028;28;20058;-73
2023/04/27 03:39:50;;;;;;;7.47;4.60;;;;;;;;;;6232941;28;20055;-74
2023/04/27 03:42:52;;;;;;;9.80;4.68;;;;;;;;;;6242776;28;20065;-74
2023/04/27 03:46:08;;;;;;;10.05;5.78;;;;;;;;;;6243429;28;20120;-74
2023/04/27 03:49:10;;;;;;;10.13;5.07;;;;;;;;;;6242560;28;20898;-74
2023/04/27 03:52:11;;;;;;;7.05;4.75;;;;;;;;;;6242122;28;20289;-74
2023/04/27 03:55:13;;;;;;;8.52;4.97;;;;;;;;;;6243958;28;20057;-74
2023/04/27 03:58:16;;;;;;;7.57;4.70;;;;;;;;;;6242473;28;20053;-74
2023/04/27 04:01:30;;;;;;;9.68;4.70;;;;;;;;;;6240662;28;20127;-74
2023/04/27 04:04:56;;;;;;;7.70;4.65;;;;;;;;;;6243978;28;20252;-74
2023/04/27 04:08:33;;;;;;;12.02;5.05;;;;;;;;;;6228986;28;20125;-74
2023/04/27 04:11:38;;;;;;;8.75;4.72;;;;;;;;;;6237401;28;20145;-74
2023/04/27 04:14:50;;;;;;;;;;;;;;;;;;;;;
2023/04/27 04:17:59;;;;;;;8.35;4.68;;;;;;;;;;6237734;28;20091;-74
2023/04/27 04:21:17;;;;;;;10.73;4.93;;;;;;;;;;6231562;28;20053;-74
2023/04/27 04:24:19;;;;;;;10.52;4.65;;;;;;;;;;6241984;28;20345;-74
2023/04/27 04:27:21;;;;;;;8.77;5.10;;;;;;;;;;6212133;28;20100;-74
2023/04/27 04:30:26;;;;;;;8.23;4.28;;;;;;;;;;6240125;28;20072;-74
2023/04/27 04:33:30;;;;;;;11.00;4.93;;;;;;;;;;6239274;28;20333;-74
2023/04/27 04:36:32;;;;;;;7.90;4.57;;;;;;;;;;6245411;28;20278;-74
2023/04/27 04:39:37;;;;;;;9.63;5.22;;;;;;;;;;6223571;28;20060;-73
2023/04/27 04:42:39;;;;;;;6.60;4.20;;;;;;;;;;6229929;28;20064;-73
2023/04/27 04:45:40;;;;;;;9.40;4.70;;;;;;;;;;6216573;28;20053;-74
2023/04/27 04:48:44;;;;;;;8.57;4.32;;;;;;;;;;6239499;28;20061;-74
2023/04/27 04:51:46;;;;;;;8.93;4.25;;;;;;;;;;6241804;28;20087;-73
2023/04/27 04:54:58;;;;;;;9.48;4.43;;;;;;;;;;6239165;28;20396;-73
2023/04/27 04:58:03;;;;;;;7.30;4.30;;;;;;;;;;6243418;28;20053;-73
2023/04/27 05:01:05;;;;;;;8.77;4.10;;;;;;;;;;6240503;28;20160;-74
2023/04/27 05:04:09;;;;;;;8.95;3.72;;;;;;;;;;6240309;28;20057;-74
2023/04/27 05:07:11;;;;;;;;;;;;;;;;;;6242499;28;20129;-73
2023/04/27 05:10:13;;;;;;;9.32;3.65;;;;;;;;;;6241468;28;19956;-74
2023/04/27 05:13:15;;;;;;;6.85;4.10;;;;;;;;;;6238328;28;20061;-73
2023/04/27 05:16:17;;;;;;;9.02;4.93;;;;;;;;;;6241117;28;20045;-75
2023/04/27 05:19:24;;;;;;;9.60;4.05;;;;;;;;;;6238487;28;20149;-74
2023/04/27 05:22:26;;;;;;;7.35;4.18;;;;;;;;;;6213524;28;20046;-74
2023/04/27 05:25:31;;;;;;;8.82;4.00;;;;;;;;;;6236924;28;20045;-74
2023/04/27 05:28:33;;;;;;;8.40;4.07;;;;;;;;;;6242375;28;20072;-74
2023/04/27 05:31:38;;;;;;;7.07;3.72;;;;;;;;;;6237713;28;20053;-75
2023/04/27 05:34:43;;;;;;;7.53;3.97;;;;;;;;;;6241260;28;20399;-75
2023/04/27 05:37:48;;;;;;;10.07;3.85;;;;;;;;;;6240320;28;20049;-74
2023/04/27 05:40:55;;;;;;;9.15;4.32;;;;;;;;;;6239782;28;20065;-74
2023/04/27 05:43:58;;;;;;;8.77;4.30;;;;;;;;;;6243648;28;20483;-74
2023/04/27 05:47:00;;;;;;;7.53;4.10;;;;;;;;;;6238449;28;20288;-74
2023/04/27 05:50:04;;;;;;;5.75;3.50;;;;;;;;;;6241940;28;20065;-74
2023/04/27 05:53:06;;;;;;;8.80;4.90;;;;;;;;;;6239324;28;20053;-75
2023/04/27 05:56:10;;;;;;;6.60;4.38;;;;;;;;;;6242227;28;20057;-74
2023/04/27 05:59:12;;;;;;;6.47;4.13;;;;;;;;;;6242361;28;20050;-75
2023/04/27 06:02:14;;;;;;;8.60;4.57;;;;;;;;;;6239409;28;20112;-75
2023/04/27 06:05:17;;;;;;;6.55;4.30;;;;;;;;;;6239344;28;21813;-74
2023/04/27 06:08:19;;;;;;;7.93;4.20;;;;;;;;;;6238685;28;20233;-75
2023/04/27 06:11:22;;;;;;;8.98;4.43;;;;;;;;;;6238986;28;20065;-74
2023/04/27 06:14:28;;;;;;;7.68;4.78;;;;;;;;;;6241229;28;20077;-74
2023/04/27 06:17:30;;;;;;;7.03;4.50;;;;;;;;;;6240936;28;20049;-74
2023/04/27 06:20:33;;;;;;;6.93;4.43;;;;;;;;;;6240162;28;20085;-74
2023/04/27 06:23:34;;;;;;;7.82;4.75;;;;;;;;;;6236551;28;20108;-74
2023/04/27 06:26:36;;;;;;;7.78;4.38;;;;;;;;;;6241014;28;20261;-74
2023/04/27 06:29:38;;;;;;;7.50;4.65;;;;;;;;;;6242412;28;20361;-75
2023/04/27 06:32:39;;;;;;;6.78;4.25;;;;;;;;;;6239295;28;20049;-75
2023/04/27 06:35:43;;;;;;;6.63;4.88;;;;;;;;;;6236264;28;20061;-76
2023/04/27 06:38:44;;;;;;;6.47;4.40;;;;;;;;;;6236856;28;20226;-75
2023/04/27 06:41:46;;;;;;;11.43;4.20;;;;;;;;;;6239907;28;21018;-75
2023/04/27 06:44:48;;;;;;;7.90;4.10;;;;;;;;;;6239800;28;20053;-75
2023/04/27 06:47:49;;;;;;;9.77;4.25;;;;;;;;;;6235970;28;20053;-76
2023/04/27 06:50:53;;;;;;;6.72;4.03;;;;;;;;;;6244105;28;20145;-75
2023/04/27 06:53:56;;;;;;;6.10;4.10;;;;;;;;;;6243297;28;20041;-74
2023/04/27 06:57:18;;;;;;;5.78;3.85;;;;;;;;;;6239179;28;20333;-74
2023/04/27 07:00:20;;;;;;;7.40;3.95;;;;;;;;;;6239819;28;20364;-74
2023/04/27 07:03:22;;;;;;;9.68;4.45;;;;;;;;;;6238413;28;20061;-76
2023/04/27 07:06:27;;;;;;;6.80;4.25;;;;;;;;;;6240803;28;20333;-77
2023/04/27 07:09:29;;;;;;;7.63;4.45;;;;;;;;;;6239125;28;20156;-76
2023/04/27 07:12:31;;;;;;;5.32;3.88;;;;;;;;;;6239632;28;20045;-77
2023/04/27 07:15:33;;;;;;;5.68;4.20;;;;;;;;;;6239710;28;20065;-75
2023/04/27 07:18:34;;;;;;;6.00;4.18;;;;;;;;;;6246185;28;20349;-76
2023/04/27 07:21:53;;;;;;;6.97;3.90;;;;;;;;;;6241170;28;20057;-75
2023/04/27 07:24:55;;;;;;;6.32;3.78;;;;;;;;;;6246006;28;20045;-76
2023/04/27 07:27:59;;;;;;;9.73;3.90;;;;;;;;;;6244151;28;20069;-76
2023/04/27 07:31:03;;;;;;;6.35;3.80;;;;;;;;;;6241258;28;20057;-72
2023/04/27 07:34:05;;;;;;;7.63;3.75;;;;;;;;;;6242847;28;20299;-75
2023/04/27 07:37:10;;;;;;;4.05;3.33;;;;;;;;;;6240912;28;20127;-75
2023/04/27 07:40:15;;;;;;;6.75;3.65;;;;;;;;;;6241045;28;20057;-75
2023/04/27 07:43:16;;;;;;;4.30;3.60;;;;;;;;;;6242731;28;20123;-74
2023/04/27 07:46:18;;;;;;;4.72;3.45;;;;;;;;;;6240967;28;20067;-74
2023/04/27 07:49:20;;;;;;;4.68;3.95;;;;;;;;;;6240785;28;20103;-72
2023/04/27 07:52:23;;;;;;;4.85;3.47;;;;;;;;;;6240959;28;20116;-70
2023/04/27 07:55:25;;;;;;;4.80;3.30;;;;;;;;;;6247040;28;20205;-71
2023/04/27 07:58:27;;;;;;;5.38;3.30;;;;;;;;;;6244692;28;20139;-70
2023/04/27 08:01:28;;;;;;;6.78;3.25;;;;;;;;;;6243224;28;20053;-70
2023/04/27 08:04:30;;;;;;;3.95;3.08;;;;;;;;;;6243196;28;20057;-68
2023/04/27 08:07:33;;;;;;;4.85;3.35;;;;;;;;;;6242115;28;20058;-72
2023/04/27 08:10:36;;;;;;;4.60;3.28;;;;;;;;;;6243276;28;20046;-75
2023/04/27 08:13:38;;;;;;;4.65;3.10;;;;;;;;;;6241531;28;20054;-76
2023/04/27 08:16:40;;;;;;;7.47;3.35;;;;;;;;;;6246746;28;20057;-73
2023/04/27 08:19:42;;;;;;;5.53;3.40;;;;;;;;;;6242035;28;20061;-73
2023/04/27 08:22:45;;;;;;;6.93;3.25;;;;;;;;;;6243683;28;20046;-72
2023/04/27 08:25:47;;;;;;;5.35;3.13;;;;;;;;;;6243104;28;20050;-73
2023/04/27 08:28:49;;;;;;;5.97;3.20;;;;;;;;;;6244617;28;20329;-73
2023/04/27 08:31:51;;;;;;;6.60;3.25;;;;;;;;;;6243116;28;20050;-73
2023/04/27 08:34:52;;;;;;;3.83;3.30;;;;;;;;;;6243610;28;20049;-72
2023/04/27 08:37:55;;;;;;;7.80;3.40;;;;;;;;;;6242993;28;20264;-72
2023/04/27 08:40:57;;;;;;;5.03;3.38;;;;;;;;;;6240521;28;20057;-72
2023/04/27 08:43:59;;;;;;;5.90;3.15;;;;;;;;;;6244029;28;20078;-72
2023/04/27 08:47:04;;;;;;;4.20;3.70;;;;;;;;;;6241159;28;20050;-73
2023/04/27 08:50:07;;;;;;;5.22;3.45;;;;;;;;;;6243282;28;20284;-74
2023/04/27 08:53:18;;;;;;;4.00;3.45;;;;;;;;;;6243315;28;20388;-72
2023/04/27 08:56:22;;;;;;;4.65;3.60;;;;;;;;;;6242791;28;20298;-72
2023/04/27 08:59:23;;;;;;;3.83;3.28;;;;;;;;;;6242061;28;20065;-72
2023/04/27 09:02:28;;;;;;;5.15;3.13;;;;;;;;;;6242944;28;20056;-72
2023/04/27 09:05:30;;;;;;;4.97;3.40;;;;;;;;;;6243058;28;20110;-72
2023/04/27 09:08:43;;;;;;;4.65;3.30;;;;;;;;;;6243451;28;20061;-72
2023/04/27 09:11:45;;;;;;;6.20;3.53;;;;;;;;;;6242117;28;20050;-73
2023/04/27 09:14:56;;;;;;;3.67;3.05;;;;;;;;;;6243070;28;20053;-74
2023/04/27 09:17:58;;;;;;;5.50;3.67;;;;;;;;;;6241738;28;20252;-73
2023/04/27 09:21:09;;;;;;;5.78;3.17;;;;;;;;;;6239303;28;20339;-72
2023/04/27 09:24:13;;;;;;;5.97;3.85;;;;;;;;;;6243078;28;20050;-73
2023/04/27 09:27:19;;;;;;;4.57;3.17;;;;;;;;;;6239390;28;20050;-73
2023/04/27 09:30:21;;;;;;;6.10;3.25;;;;;;;;;;6244908;28;20061;-73
2023/04/27 09:33:24;;;;;;;5.68;2.92;;;;;;;;;;6239782;28;20052;-73
2023/04/27 09:36:26;;;;;;;4.18;3.13;;;;;;;;;;6241000;28;20042;-73
2023/04/27 09:39:29;;;;;;;5.50;3.08;;;;;;;;;;6240663;28;20064;-72
2023/04/27 09:42:31;;;;;;;7.25;3.42;;;;;;;;;;6240265;28;20057;-74
2023/04/27 09:45:33;;;;;;;5.75;2.85;;;;;;;;;;6241245;28;20226;-73
2023/04/27 09:48:35;;;;;;;5.38;3.70;;;;;;;;;;6240383;28;20095;-73
2023/04/27 09:51:37;;;;;;;6.65;3.08;;;;;;;;;;6241432;28;20069;-73
2023/04/27 09:54:41;;;;;;;5.03;3.20;;;;;;;;;;6240747;28;20045;-73
2023/04/27 09:57:51;;;;;;;5.20;3.65;;;;;;;;;;6240518;28;20268;-74
2023/04/27 10:01:00;;;;;;;6.35;3.90;;;;;;;;;;6240264;28;20076;-73
2023/04/27 10:04:20;;;;;;;4.47;4.07;;;;;;;;;;6242313;28;20301;-73
2023/04/27 10:07:22;;;;;;;4.57;3.50;;;;;;;;;;6240370;28;20050;-73
2023/04/27 10:10:25;;;;;;;5.57;3.88;;;;;;;;;;6238255;28;20393;-73
2023/04/27 10:13:33;;;;;;;7.28;4.30;;;;;;;;;;6240172;28;20088;-74
2023/04/27 10:16:44;;;;;;;5.55;3.70;;;;;;;;;;6240593;28;20042;-73
2023/04/27 10:19:56;;;;;;;6.18;3.97;;;;;;;;;;6239860;28;20344;-74
2023/04/27 10:22:59;;;;;;;5.32;3.55;;;;;;;;;;6239842;28;20293;-73
2023/04/27 10:26:07;;;;;;;9.00;3.88;;;;;;;;;;6240668;28;20054;-74
2023/04/27 10:29:10;;;;;;;6.28;4.13;;;;;;;;;;6238116;28;20052;-74
2023/04/27 10:32:14;;;;;;;5.15;4.65;;;;;;;;;;6239633;28;20077;-73
2023/04/27 10:35:15;;;;;;;6.82;4.97;;;;;;;;;;6237965;28;20258;-74
2023/04/27 10:38:19;;;;;;;9.23;5.35;;;;;;;;;;6240422;28;20096;-73
2023/04/27 10:41:23;;;;;;;6.70;5.22;;;;;;;;;;6236272;28;20153;-73
2023/04/27 10:44:27;;;;;;;8.10;5.25;;;;;;;;;;6241047;28;20049;-73
2023/04/27 10:47:38;;;;;;;8.68;5.45;;;;;;;;;;6239202;28;20064;-73
2023/04/27 10:50:41;;;;;;;5.80;5.20;;;;;;;;;;6239901;28;20104;-73
2023/04/27 10:53:43;;;;;;;7.13;5.30;;;;;;;;;;6240468;28;20346;-73
2023/04/27 10:56:46;;;;;;;10.43;5.88;;;;;;;;;;6237647;28;20058;-73
2023/04/27 10:59:48;;;;;;;;;;;;;;;;;;6238448;28;20345;-73
2023/04/27 11:02:51;;;;;;;8.48;4.43;;;;;;;;;;6238633;28;19980;-73
2023/04/27 11:06:01;;;;;;;9.93;4.85;;;;;;;;;;6237784;28;20202;-74
2023/04/27 11:09:05;;;;;;;8.35;4.90;;;;;;;;;;6237329;28;20050;-72
2023/04/27 11:12:11;;;;;;;8.13;5.13;;;;;;;;;;6238774;28;20060;-76
2023/04/27 11:15:13;;;;;;;9.70;5.53;;;;;;;;;;6238737;28;20053;-75
2023/04/27 11:18:16;;;;;;;8.27;5.80;;;;;;;;;;6238244;28;20328;-75
2023/04/27 11:21:19;;;;;;;7.03;5.47;;;;;;;;;;6236485;28;20057;-75
2023/04/27 11:24:21;;;;;;;;;;;;;;;;;;6239609;28;20617;-76
2023/04/27 11:27:24;;;;;;;8.85;5.60;;;;;;;;;;6238590;28;19956;-75
2023/04/27 11:30:26;;;;;;;7.75;6.13;;;;;;;;;;6237537;28;20061;-73
2023/04/27 11:33:28;;;;;;;11.60;5.97;;;;;;;;;;6240403;28;20132;-74
2023/04/27 11:36:30;;;;;;;6.85;5.07;;;;;;;;;;6240184;28;20045;-75
2023/04/27 11:39:34;;;;;;;9.88;4.93;;;;;;;;;;6241721;28;20061;-73
2023/04/27 11:42:42;;;;;;;7.15;6.05;;;;;;;;;;6244656;28;20046;-73
2023/04/27 11:45:44;;;;;;;9.18;5.82;;;;;;;;;;6243481;28;20061;-72
2023/04/27 11:48:46;;;;;;;10.82;6.90;;;;;;;;;;6236719;28;20257;-73
2023/04/27 11:51:48;;;;;;;7.07;4.88;;;;;;;;;;6236251;28;20113;-75
2023/04/27 11:54:51;;;;;;;11.68;6.03;;;;;;;;;;6239846;28;20111;-75
2023/04/27 11:57:58;;;;;;;10.32;6.90;;;;;;;;;;6237749;28;20109;-75
2023/04/27 12:01:00;;;;;;;9.95;7.28;;;;;;;;;;6240087;28;20049;-75
2023/04/27 12:04:02;;;;;;;12.65;6.65;;;;;;;;;;6243896;28;20053;-74
2023/04/27 12:07:04;;;;;;;10.40;6.75;;;;;;;;;;6239472;28;20317;-74
2023/04/27 12:10:07;;;;;;;10.73;7.03;;;;;;;;;;6244015;28;20053;-75
2023/04/27 12:13:11;;;;;;;9.48;5.90;;;;;;;;;;6244537;28;20053;-75
2023/04/27 12:16:13;;;;;;;9.40;6.05;;;;;;;;;;6244837;28;20053;-75
2023/04/27 12:19:15;;;;;;;8.70;6.10;;;;;;;;;;6242923;28;20069;-76
2023/04/27 12:22:18;;;;;;;10.45;6.65;;;;;;;;;;6234391;28;20215;-76
2023/04/27 12:25:20;;;;;;;10.93;7.03;;;;;;;;;;6243222;28;20068;-74
2023/04/27 12:28:33;;;;;;;8.23;6.18;;;;;;;;;;6239116;28;20064;-77
2023/04/27 12:31:34;;;;;;;10.05;6.53;;;;;;;;;;6248286;28;20058;-74
2023/04/27 12:34:38;;;;;;;10.97;7.83;;;;;;;;;;6240058;28;20053;-75
2023/04/27 12:37:39;;;;;;;10.68;7.82;;;;;;;;;;6240898;28;20058;-75
2023/04/27 12:40:41;;;;;;;9.43;7.60;;;;;;;;;;6240510;28;20057;-75
2023/04/27 12:43:45;;;;;;;11.88;7.53;;;;;;;;;;6242394;28;20049;-75
2023/04/27 12:46:47;;;;;;;11.18;6.68;;;;;;;;;;6238347;28;20057;-75
2023/04/27 12:49:49;;;;;;;10.02;6.50;;;;;;;;;;6242891;28;20069;-75
2023/04/27 12:52:51;;;;;;;9.00;7.45;;;;;;;;;;6239764;28;20064;-75
2023/04/27 12:55:53;;;;;;;9.85;7.00;;;;;;;;;;6241403;28;20103;-75
2023/04/27 12:58:57;;;;;;;9.83;6.80;;;;;;;;;;6239203;28;20068;-74
2023/04/27 13:01:59;;;;;;;9.30;6.45;;;;;;;;;;6241514;28;20050;-75
2023/04/27 13:05:00;;;;;;;10.70;7.00;;;;;;;;;;6240155;28;20364;-75
2023/04/27 13:08:03;;;;;;;9.68;7.75;;;;;;;;;;6241113;28;20333;-75
2023/04/27 13:11:05;;;;;;;11.07;7.28;;;;;;;;;;6242635;28;20054;-75
2023/04/27 13:14:11;;;;;;;12.30;8.30;;;;;;;;;;6243310;28;20137;-75
2023/04/27 13:17:12;;;;;;;8.35;6.70;;;;;;;;;;6239412;28;20054;-75
2023/04/27 13:20:15;;;;;;;8.57;7.68;;;;;;;;;;6241910;28;20058;-74
2023/04/27 13:23:17;;;;;;;;;;;;;;;;;;6239300;28;20153;-75
2023/04/27 13:26:18;;;;;;;11.32;7.80;;;;;;;;;;6242412;28;20237;-75
2023/04/27 13:29:23;;;;;;;9.20;6.75;;;;;;;;;;6241534;28;20058;-75
2023/04/27 13:32:25;;;;;;;9.63;6.97;;;;;;;;;;6241696;28;20053;-74
2023/04/27 13:35:27;;;;;;;10.10;7.28;;;;;;;;;;6239074;28;20065;-75
2023/04/27 13:38:28;;;;;;;9.23;7.40;;;;;;;;;;6235338;28;20237;-75
2023/04/27 13:41:31;;;;;;;9.05;6.63;;;;;;;;;;6242145;28;20053;-75
2023/04/27 13:44:34;;;;;;;;;;;;;;;;;;6243044;28;20527;-75
2023/04/27 13:47:36;;;;;;;10.15;6.90;;;;;;;;;;6242875;28;19967;-75
2023/04/27 13:50:38;;;;;;;12.32;7.47;;;;;;;;;;6243273;28;20045;-75
2023/04/27 13:53:40;;;;;;;11.17;7.37;;;;;;;;;;6242175;28;20061;-75
2023/04/27 13:56:41;;;;;;;11.15;7.20;;;;;;;;;;6243808;28;20048;-75
2023/04/27 13:59:45;;;;;;;8.18;6.07;;;;;;;;;;6241280;28;22217;-75
2023/04/27 14:02:46;;;;;;;10.85;7.18;;;;;;;;;;6241155;28;20368;-74
2023/04/27 14:05:50;;;;;;;13.70;7.13;;;;;;;;;;6243104;28;20557;-75
2023/04/27 14:08:51;;;;;;;11.40;6.85;;;;;;;;;;6221163;28;20384;-75
2023/04/27 14:11:53;;;;;;;12.20;7.65;;;;;;;;;;6231093;28;20053;-75
2023/04/27 14:14:56;;;;;;;12.45;8.20;;;;;;;;;;6237437;28;20061;-75
2023/04/27 14:17:58;;;;;;;15.93;8.68;;;;;;;;;;6236798;28;20084;-75
2023/04/27 14:20:59;;;;;;;12.50;7.68;;;;;;;;;;6241840;28;20199;-75
2023/04/27 14:24:01;;;;;;;12.43;8.57;;;;;;;;;;6236902;28;20064;-75
2023/04/27 14:27:03;;;;;;;11.90;7.10;;;;;;;;;;6240871;28;20226;-75
2023/04/27 14:30:07;;;;;;;13.90;8.00;;;;;;;;;;6241250;28;20052;-77
2023/04/27 14:33:09;;;;;;;9.77;7.03;;;;;;;;;;6236638;28;20124;-74
2023/04/27 14:36:11;;;;;;;12.70;7.55;;;;;;;;;;6240811;28;20132;-76
2023/04/27 14:39:13;;;;;;;13.85;7.22;;;;;;;;;;6236413;28;20064;-74
2023/04/27 14:42:15;;;;;;;10.60;7.13;;;;;;;;;;6237879;28;20061;-76
2023/04/27 14:45:18;;;;;;;9.87;7.43;;;;;;;;;;6236831;28;20061;-76
2023/04/27 14:48:19;;;;;;;11.73;8.07;;;;;;;;;;6235724;28;20664;-76
2023/04/27 14:51:21;;;;;;;14.38;8.68;;;;;;;;;;6237969;28;20103;-76
2023/04/27 14:54:23;;;;;;;14.95;8.75;;;;;;;;;;6237819;28;20320;-76
2023/04/27 14:57:25;;;;;;;12.77;7.63;;;;;;;;;;6239176;28;20061;-76
2023/04/27 15:00:28;;;;;;;11.55;7.38;;;;;;;;;;6235722;28;20065;-75
2023/04/27 15:03:31;;;;;;;15.25;8.43;;;;;;;;;;6239181;28;20257;-76
2023/04/27 15:06:32;;;;;;;13.32;8.63;;;;;;;;;;6223596;28;20238;-76
2023/04/27 15:09:34;;;;;;;13.55;9.10;;;;;;;;;;6240056;28;20072;-76
2023/04/27 15:12:36;;;;;;;12.33;7.80;;;;;;;;;;6243171;28;20069;-76
2023/04/27 15:15:39;;;;;;;16.35;9.45;;;;;;;;;;6241309;28;20053;-75
2023/04/27 15:18:41;;;;;;;14.43;8.77;;;;;;;;;;6244123;28;20072;-76
2023/04/27 15:21:42;;;;;;;20.47;8.03;;;;;;;;;;6240625;28;20049;-75
2023/04/27 15:24:44;;;;;;;12.70;8.40;;;;;;;;;;6243072;28;20049;-75
2023/04/27 15:27:46;;;;;;;11.43;8.37;;;;;;;;;;6241957;28;20060;-75
2023/04/27 15:30:49;;;;;;;9.90;7.75;;;;;;;;;;6244154;28;20353;-75
2023/04/27 15:33:52;;;;;;;12.57;8.30;;;;;;;;;;6241073;28;20050;-75
2023/04/27 15:36:54;;;;;;;;;;;;;;;;;;6249913;28;20245;-75
2023/04/27 15:39:56;;;;;;;11.82;8.35;;;;;;;;;;6243513;28;19935;-75
2023/04/27 15:42:58;;;;;;;15.27;9.13;;;;;;;;;;6241791;28;20053;-75
2023/04/27 15:46:03;;;;;;;14.53;8.70;;;;;;;;;;6245265;28;21740;-75
2023/04/27 15:49:05;;;;;;;13.52;8.80;;;;;;;;;;6243135;28;20057;-75
2023/04/27 15:52:07;;;;;;;16.13;9.37;;;;;;;;;;6244471;28;20083;-75
2023/04/27 15:55:09;;;;;;;14.65;8.60;;;;;;;;;;6241996;28;20045;-75
2023/04/27 15:58:10;;;;;;;16.93;8.87;;;;;;;;;;6238499;28;20053;-75
2023/04/27 16:01:14;;;;;;;15.55;8.50;;;;;;;;;;6244625;28;20053;-75
2023/04/27 16:04:15;;;;;;;;;;;;;;;;;;6249173;28;20053;-75
2023/04/27 16:07:17;;;;;;;13.93;8.60;;;;;;;;;;6242244;28;19925;-75
2023/04/27 16:10:19;;;;;;;15.77;8.93;;;;;;;;;;6242958;28;20045;-75
2023/04/27 16:13:21;;;;;;;15.63;8.55;;;;;;;;;;6238454;28;20042;-71
2023/04/27 16:16:26;;;;;;;15.15;8.18;;;;;;;;;;6241809;28;20045;-71
2023/04/27 16:19:28;;;;;;;11.23;7.45;;;;;;;;;;6238503;28;20110;-72
2023/04/27 16:22:30;;;;;;;17.27;8.57;;;;;;;;;;6241913;28;20104;-72
2023/04/27 16:25:32;;;;;;;38.17;13.30;;;;;;;;;;6242383;28;20050;-71
2023/04/27 16:28:34;;;;;;;19.25;9.40;;;;;;;;;;6240396;28;20053;-74
2023/04/27 16:31:37;;;;;;;16.13;9.55;;;;;;;;;;6240911;28;20143;-74
2023/04/27 16:34:39;;;;;;;16.73;9.20;;;;;;;;;;6240070;28;20053;-75
2023/04/27 16:37:40;;;;;;;18.25;9.48;;;;;;;;;;6239617;28;20049;-74
2023/04/27 16:40:42;;;;;;;21.20;10.38;;;;;;;;;;6240656;28;20070;-75
2023/04/27 16:43:45;;;;;;;17.40;9.38;;;;;;;;;;6242932;28;20064;-74
2023/04/27 16:46:50;;;;;;;13.88;9.45;;;;;;;;;;6238320;28;20139;-74
2023/04/27 16:49:51;;;;;;;16.27;9.13;;;;;;;;;;6239268;28;20348;-74
2023/04/27 16:52:53;;;;;;;16.52;9.80;;;;;;;;;;6239924;28;20233;-74
2023/04/27 16:55:55;;;;;;;15.90;9.50;;;;;;;;;;6240445;28;20057;-74
2023/04/27 16:58:57;;;;;;;17.38;10.57;;;;;;;;;;6243545;28;20048;-75
2023/04/27 17:02:00;;;;;;;17.75;9.25;;;;;;;;;;6238194;28;20045;-74
2023/04/27 17:05:02;;;;;;;20.30;10.25;;;;;;;;;;6240515;28;20054;-75
2023/04/27 17:08:05;;;;;;;16.40;9.32;;;;;;;;;;6242739;28;20045;-76
2023/04/27 17:11:08;;;;;;;15.68;9.38;;;;;;;;;;6243648;28;20057;-75
2023/04/27 17:14:10;;;;;;;15.35;9.63;;;;;;;;;;6239593;28;20057;-74
2023/04/27 17:17:13;;;;;;;15.75;9.43;;;;;;;;;;6235519;28;20053;-73
2023/04/27 17:20:14;;;;;;;;;;;;;;;;;;6242114;28;20334;-73
2023/04/27 17:23:16;;;;;;;15.07;8.88;;;;;;;;;;6241153;28;19933;-76
2023/04/27 17:26:20;;;;;;;13.77;8.45;;;;;;;;;;6241966;28;20129;-74
2023/04/27 17:29:22;;;;;;;18.63;10.57;;;;;;;;;;6241359;28;20081;-74
2023/04/27 17:32:25;;;;;;;18.20;8.75;;;;;;;;;;6240238;28;20045;-75
2023/04/27 17:35:27;;;;;;;12.98;8.77;;;;;;;;;;6239756;28;20079;-75
2023/04/27 17:38:28;;;;;;;74.07;39.53;;;;;;;;;;6239490;28;20046;-76
2023/04/27 17:41:31;;;;;;;72.47;37.63;;;;;;;;;;6239985;28;20068;-74
2023/04/27 17:44:33;;;;;;;16.83;10.15;;;;;;;;;;6239739;28;20053;-75
2023/04/27 17:47:36;;;;;;;15.07;8.40;;;;;;;;;;6212105;28;20342;-75
2023/04/27 17:50:39;;;;;;;13.07;8.32;;;;;;;;;;6240721;28;20053;-75
2023/04/27 17:53:41;;;;;;;;;;;;;;;;;;6240303;28;20145;-74
2023/04/27 17:56:44;;;;;;;16.25;8.65;;;;;;;;;;6240465;28;19972;-75
2023/04/27 17:59:45;;;;;;;13.27;8.23;;;;;;;;;;6237256;28;20056;-75
2023/04/27 18:02:49;;;;;;;16.05;7.90;;;;;;;;;;6239362;28;20472;-74
2023/04/27 18:05:50;;;;;;;12.90;7.63;;;;;;;;;;6239928;28;20053;-75
2023/04/27 18:08:52;;;;;;;16.02;7.65;;;;;;;;;;6241736;28;20087;-75
2023/04/27 18:11:54;;;;;;;15.10;8.52;;;;;;;;;;6237547;28;20108;-74
2023/04/27 18:14:56;;;;;;;13.27;7.45;;;;;;;;;;6238945;28;20101;-75
2023/04/27 18:17:59;;;;;;;12.88;7.88;;;;;;;;;;6238884;28;20057;-75
2023/04/27 18:21:00;;;;;;;13.25;7.75;;;;;;;;;;6210787;28;20053;-77
2023/04/27 18:24:02;;;;;;;13.25;7.10;;;;;;;;;;6241304;28;20089;-75
2023/04/27 18:27:04;;;;;;;13.95;7.03;;;;;;;;;;6240262;28;20053;-74
2023/04/27 18:30:07;;;;;;;13.30;7.68;;;;;;;;;;6244957;28;20061;-76
2023/04/27 18:33:10;;;;;;;12.82;7.78;;;;;;;;;;6244909;28;20072;-77
2023/04/27 18:36:12;;;;;;;11.30;6.97;;;;;;;;;;6244224;28;20052;-77